sensor_id;sensor_type;location;lat;lon;timestamp;P1;durP1;ratioP1;P2;durP2;ratioP2
65613;SDS011;52283;49.292;10.572;2023-09-19T00:02:25;1.05;;;0.40;;
65613;SDS011;52283;49.292;10.572;2023-09-19T00:04:52;1.35;;;0.50;;
65613;SDS011;52283;49.292;10.572;2023-09-19T00:07:19;0.82;;;0.40;;
65613;SDS011;52283;49.292;10.572;2023-09-19T00:09:46;1.38;;;0.50;;
65613;SDS011;52283;49.292;10.572;2023-09-19T00:12:13;1.58;;;0.50;;
65613;SDS011;52283;49.292;10.572;2023-09-19T00:14:40;1.42;;;0.30;;
65613;SDS011;52283;49.292;10.572;2023-09-19T00:17:08;1.13;;;0.20;;
65613;SDS011;52283;49.292;10.572;2023-09-19T00:19:34;0.57;;;0.40;;
65613;SDS011;52283;49.292;10.572;2023-09-19T00:22:02;1.35;;;0.30;;
65613;SDS011;52283;49.292;10.572;2023-09-19T00:24:29;1.38;;;0.40;;
65613;SDS011;52283;49.292;10.572;2023-09-19T00:26:56;0.93;;;0.30;;
65613;SDS011;52283;49.292;10.572;2023-09-19T00:29:24;1.27;;;0.30;;
65613;SDS011;52283;49.292;10.572;2023-09-19T00:31:54;0.40;;;0.33;;
65613;SDS011;52283;49.292;10.572;2023-09-19T00:34:22;0.30;;;0.30;;
65613;SDS011;52283;49.292;10.572;2023-09-19T00:36:50;0.60;;;0.38;;
65613;SDS011;52283;49.292;10.572;2023-09-19T00:39:18;0.68;;;0.40;;
65613;SDS011;52283;49.292;10.572;2023-09-19T00:41:45;0.30;;;0.30;;
65613;SDS011;52283;49.292;10.572;2023-09-19T00:44:12;0.70;;;0.50;;
65613;SDS011;52283;49.292;10.572;2023-09-19T00:46:38;1.83;;;0.40;;
65613;SDS011;52283;49.292;10.572;2023-09-19T00:49:06;0.45;;;0.30;;
65613;SDS011;52283;49.292;10.572;2023-09-19T00:51:35;1.77;;;0.50;;
65613;SDS011;52283;49.292;10.572;2023-09-19T00:54:02;0.63;;;0.50;;
65613;SDS011;52283;49.292;10.572;2023-09-19T00:56:30;1.15;;;0.40;;
65613;SDS011;52283;49.292;10.572;2023-09-19T00:58:56;0.95;;;0.40;;
65613;SDS011;52283;49.292;10.572;2023-09-19T01:01:23;0.82;;;0.30;;
65613;SDS011;52283;49.292;10.572;2023-09-19T01:03:50;1.42;;;0.38;;
65613;SDS011;52283;49.292;10.572;2023-09-19T01:06:16;0.85;;;0.30;;
65613;SDS011;52283;49.292;10.572;2023-09-19T01:08:45;1.48;;;0.40;;
65613;SDS011;52283;49.292;10.572;2023-09-19T01:11:12;2.50;;;0.40;;
65613;SDS011;52283;49.292;10.572;2023-09-19T01:13:47;0.22;;;0.22;;
65613;SDS011;52283;49.292;10.572;2023-09-19T01:16:19;1.73;;;0.30;;
65613;SDS011;52283;49.292;10.572;2023-09-19T01:19:01;1.33;;;0.30;;
65613;SDS011;52283;49.292;10.572;2023-09-19T01:21:41;1.88;;;0.55;;
65613;SDS011;52283;49.292;10.572;2023-09-19T01:27:25;0.57;;;0.30;;
65613;SDS011;52283;49.292;10.572;2023-09-19T01:30:10;0.22;;;0.20;;
65613;SDS011;52283;49.292;10.572;2023-09-19T01:35:06;1.13;;;0.40;;
65613;SDS011;52283;49.292;10.572;2023-09-19T01:37:37;3.70;;;0.40;;
65613;SDS011;52283;49.292;10.572;2023-09-19T01:40:05;2.00;;;0.20;;
65613;SDS011;52283;49.292;10.572;2023-09-19T01:42:43;2.88;;;0.40;;
65613;SDS011;52283;49.292;10.572;2023-09-19T01:45:18;0.70;;;0.32;;
65613;SDS011;52283;49.292;10.572;2023-09-19T01:47:53;1.35;;;0.35;;
65613;SDS011;52283;49.292;10.572;2023-09-19T01:50:26;0.70;;;0.38;;
65613;SDS011;52283;49.292;10.572;2023-09-19T01:52:57;0.38;;;0.30;;
65613;SDS011;52283;49.292;10.572;2023-09-19T01:55:29;1.45;;;0.40;;
65613;SDS011;52283;49.292;10.572;2023-09-19T01:57:58;0.40;;;0.30;;
65613;SDS011;52283;49.292;10.572;2023-09-19T02:00:32;0.85;;;0.40;;
65613;SDS011;52283;49.292;10.572;2023-09-19T02:03:02;1.15;;;0.50;;
65613;SDS011;52283;49.292;10.572;2023-09-19T02:05:29;1.35;;;0.60;;
65613;SDS011;52283;49.292;10.572;2023-09-19T02:07:56;0.50;;;0.40;;
65613;SDS011;52283;49.292;10.572;2023-09-19T02:10:23;0.68;;;0.40;;
65613;SDS011;52283;49.292;10.572;2023-09-19T02:12:50;2.70;;;0.70;;
65613;SDS011;52283;49.292;10.572;2023-09-19T02:15:17;0.60;;;0.40;;
65613;SDS011;52283;49.292;10.572;2023-09-19T02:17:45;1.08;;;0.40;;
65613;SDS011;52283;49.292;10.572;2023-09-19T02:20:12;0.73;;;0.50;;
65613;SDS011;52283;49.292;10.572;2023-09-19T02:22:40;1.50;;;0.60;;
65613;SDS011;52283;49.292;10.572;2023-09-19T02:25:07;3.67;;;0.60;;
65613;SDS011;52283;49.292;10.572;2023-09-19T02:27:33;1.75;;;0.50;;
65613;SDS011;52283;49.292;10.572;2023-09-19T02:30:00;3.05;;;0.55;;
65613;SDS011;52283;49.292;10.572;2023-09-19T02:32:29;1.77;;;0.40;;
65613;SDS011;52283;49.292;10.572;2023-09-19T02:34:57;1.25;;;0.40;;
65613;SDS011;52283;49.292;10.572;2023-09-19T02:37:24;1.90;;;0.50;;
65613;SDS011;52283;49.292;10.572;2023-09-19T02:39:51;3.55;;;0.80;;
65613;SDS011;52283;49.292;10.572;2023-09-19T02:42:18;3.47;;;0.50;;
65613;SDS011;52283;49.292;10.572;2023-09-19T02:44:44;1.15;;;1.00;;
65613;SDS011;52283;49.292;10.572;2023-09-19T02:47:12;5.72;;;0.68;;
65613;SDS011;52283;49.292;10.572;2023-09-19T02:49:40;0.80;;;0.45;;
65613;SDS011;52283;49.292;10.572;2023-09-19T02:52:08;1.75;;;0.68;;
65613;SDS011;52283;49.292;10.572;2023-09-19T02:54:36;2.45;;;0.50;;
65613;SDS011;52283;49.292;10.572;2023-09-19T02:57:03;1.23;;;0.65;;
65613;SDS011;52283;49.292;10.572;2023-09-19T02:59:31;3.72;;;0.80;;
65613;SDS011;52283;49.292;10.572;2023-09-19T03:01:58;2.78;;;0.57;;
65613;SDS011;52283;49.292;10.572;2023-09-19T03:04:25;3.58;;;0.70;;
65613;SDS011;52283;49.292;10.572;2023-09-19T03:06:53;1.58;;;0.40;;
65613;SDS011;52283;49.292;10.572;2023-09-19T03:09:25;0.95;;;0.80;;
65613;SDS011;52283;49.292;10.572;2023-09-19T03:11:51;4.50;;;0.95;;
65613;SDS011;52283;49.292;10.572;2023-09-19T03:14:19;1.75;;;0.70;;
65613;SDS011;52283;49.292;10.572;2023-09-19T03:16:46;1.50;;;0.57;;
65613;SDS011;52283;49.292;10.572;2023-09-19T03:19:12;1.38;;;0.50;;
65613;SDS011;52283;49.292;10.572;2023-09-19T03:21:40;1.40;;;0.57;;
65613;SDS011;52283;49.292;10.572;2023-09-19T03:24:06;2.55;;;0.50;;
65613;SDS011;52283;49.292;10.572;2023-09-19T03:26:34;0.85;;;0.50;;
65613;SDS011;52283;49.292;10.572;2023-09-19T03:29:03;2.55;;;0.55;;
65613;SDS011;52283;49.292;10.572;2023-09-19T03:31:32;2.47;;;0.40;;
65613;SDS011;52283;49.292;10.572;2023-09-19T03:34:02;1.02;;;0.40;;
65613;SDS011;52283;49.292;10.572;2023-09-19T03:36:29;2.30;;;0.50;;
65613;SDS011;52283;49.292;10.572;2023-09-19T03:38:56;3.33;;;0.95;;
65613;SDS011;52283;49.292;10.572;2023-09-19T03:41:22;1.30;;;0.60;;
65613;SDS011;52283;49.292;10.572;2023-09-19T03:43:50;1.50;;;0.80;;
65613;SDS011;52283;49.292;10.572;2023-09-19T03:46:17;1.40;;;0.90;;
65613;SDS011;52283;49.292;10.572;2023-09-19T03:48:43;2.50;;;0.50;;
65613;SDS011;52283;49.292;10.572;2023-09-19T03:51:10;0.80;;;0.63;;
65613;SDS011;52283;49.292;10.572;2023-09-19T03:53:36;1.60;;;0.60;;
65613;SDS011;52283;49.292;10.572;2023-09-19T03:56:03;0.70;;;0.40;;
65613;SDS011;52283;49.292;10.572;2023-09-19T03:58:29;1.20;;;0.73;;
65613;SDS011;52283;49.292;10.572;2023-09-19T04:00:57;4.57;;;0.90;;
65613;SDS011;52283;49.292;10.572;2023-09-19T04:03:24;1.60;;;0.70;;
65613;SDS011;52283;49.292;10.572;2023-09-19T04:05:59;0.98;;;0.40;;
65613;SDS011;52283;49.292;10.572;2023-09-19T04:08:26;3.60;;;0.70;;
65613;SDS011;52283;49.292;10.572;2023-09-19T04:10:52;2.75;;;0.65;;
65613;SDS011;52283;49.292;10.572;2023-09-19T04:13:19;0.85;;;0.77;;
65613;SDS011;52283;49.292;10.572;2023-09-19T04:15:45;5.32;;;0.73;;
65613;SDS011;52283;49.292;10.572;2023-09-19T04:18:13;1.13;;;0.50;;
65613;SDS011;52283;49.292;10.572;2023-09-19T04:20:39;1.85;;;0.60;;
65613;SDS011;52283;49.292;10.572;2023-09-19T04:23:06;1.17;;;0.40;;
65613;SDS011;52283;49.292;10.572;2023-09-19T04:25:33;1.35;;;0.60;;
65613;SDS011;52283;49.292;10.572;2023-09-19T04:27:59;1.60;;;0.80;;
65613;SDS011;52283;49.292;10.572;2023-09-19T04:30:26;1.35;;;0.60;;
65613;SDS011;52283;49.292;10.572;2023-09-19T04:32:52;1.25;;;0.60;;
65613;SDS011;52283;49.292;10.572;2023-09-19T04:35:20;1.75;;;0.60;;
65613;SDS011;52283;49.292;10.572;2023-09-19T04:37:47;2.25;;;0.50;;
65613;SDS011;52283;49.292;10.572;2023-09-19T04:40:13;2.88;;;0.70;;
65613;SDS011;52283;49.292;10.572;2023-09-19T04:42:42;0.60;;;0.50;;
65613;SDS011;52283;49.292;10.572;2023-09-19T04:45:09;0.75;;;0.50;;
65613;SDS011;52283;49.292;10.572;2023-09-19T04:47:36;2.08;;;0.60;;
65613;SDS011;52283;49.292;10.572;2023-09-19T04:50:04;2.38;;;0.50;;
65613;SDS011;52283;49.292;10.572;2023-09-19T04:52:34;1.63;;;0.50;;
65613;SDS011;52283;49.292;10.572;2023-09-19T04:55:01;1.27;;;0.80;;
65613;SDS011;52283;49.292;10.572;2023-09-19T04:57:28;1.40;;;0.70;;
65613;SDS011;52283;49.292;10.572;2023-09-19T04:59:56;0.90;;;0.50;;
65613;SDS011;52283;49.292;10.572;2023-09-19T05:02:23;1.33;;;0.52;;
65613;SDS011;52283;49.292;10.572;2023-09-19T05:04:49;1.25;;;0.80;;
65613;SDS011;52283;49.292;10.572;2023-09-19T05:07:16;1.10;;;0.40;;
65613;SDS011;52283;49.292;10.572;2023-09-19T05:09:44;2.15;;;0.50;;
65613;SDS011;52283;49.292;10.572;2023-09-19T05:12:10;2.25;;;0.60;;
65613;SDS011;52283;49.292;10.572;2023-09-19T05:14:37;1.70;;;0.70;;
65613;SDS011;52283;49.292;10.572;2023-09-19T05:17:05;0.60;;;0.57;;
65613;SDS011;52283;49.292;10.572;2023-09-19T05:19:32;1.50;;;0.63;;
65613;SDS011;52283;49.292;10.572;2023-09-19T05:22:00;1.00;;;0.60;;
65613;SDS011;52283;49.292;10.572;2023-09-19T05:24:26;6.05;;;2.55;;
65613;SDS011;52283;49.292;10.572;2023-09-19T05:26:54;5.68;;;1.08;;
65613;SDS011;52283;49.292;10.572;2023-09-19T05:29:22;0.60;;;0.50;;
65613;SDS011;52283;49.292;10.572;2023-09-19T05:31:48;1.52;;;0.50;;
65613;SDS011;52283;49.292;10.572;2023-09-19T05:34:16;1.17;;;0.60;;
65613;SDS011;52283;49.292;10.572;2023-09-19T05:36:42;1.70;;;0.70;;
65613;SDS011;52283;49.292;10.572;2023-09-19T05:39:08;1.90;;;1.00;;
65613;SDS011;52283;49.292;10.572;2023-09-19T05:41:37;2.95;;;0.77;;
65613;SDS011;52283;49.292;10.572;2023-09-19T05:44:06;1.15;;;0.70;;
65613;SDS011;52283;49.292;10.572;2023-09-19T05:46:33;3.75;;;0.70;;
65613;SDS011;52283;49.292;10.572;2023-09-19T05:48:59;1.60;;;0.77;;
65613;SDS011;52283;49.292;10.572;2023-09-19T05:51:26;2.08;;;1.25;;
65613;SDS011;52283;49.292;10.572;2023-09-19T05:53:53;2.25;;;0.60;;
65613;SDS011;52283;49.292;10.572;2023-09-19T05:56:20;1.95;;;0.70;;
65613;SDS011;52283;49.292;10.572;2023-09-19T05:58:46;2.38;;;0.70;;
65613;SDS011;52283;49.292;10.572;2023-09-19T06:01:14;3.40;;;1.45;;
65613;SDS011;52283;49.292;10.572;2023-09-19T06:03:40;1.13;;;0.90;;
65613;SDS011;52283;49.292;10.572;2023-09-19T06:06:07;3.17;;;1.42;;
65613;SDS011;52283;49.292;10.572;2023-09-19T06:08:34;0.68;;;0.68;;
65613;SDS011;52283;49.292;10.572;2023-09-19T06:11:00;3.15;;;1.02;;
65613;SDS011;52283;49.292;10.572;2023-09-19T06:13:27;5.95;;;1.20;;
65613;SDS011;52283;49.292;10.572;2023-09-19T06:15:54;3.78;;;1.35;;
65613;SDS011;52283;49.292;10.572;2023-09-19T06:18:22;5.10;;;1.20;;
65613;SDS011;52283;49.292;10.572;2023-09-19T06:20:51;2.20;;;1.15;;
65613;SDS011;52283;49.292;10.572;2023-09-19T06:23:18;1.88;;;1.33;;
65613;SDS011;52283;49.292;10.572;2023-09-19T06:25:47;2.13;;;1.30;;
65613;SDS011;52283;49.292;10.572;2023-09-19T06:28:14;3.40;;;1.73;;
65613;SDS011;52283;49.292;10.572;2023-09-19T06:30:43;1.88;;;1.52;;
65613;SDS011;52283;49.292;10.572;2023-09-19T06:33:10;3.13;;;1.52;;
65613;SDS011;52283;49.292;10.572;2023-09-19T06:35:39;1.27;;;1.17;;
65613;SDS011;52283;49.292;10.572;2023-09-19T06:38:07;3.25;;;1.50;;
65613;SDS011;52283;49.292;10.572;2023-09-19T06:40:33;2.65;;;2.45;;
65613;SDS011;52283;49.292;10.572;2023-09-19T06:43:00;2.33;;;1.45;;
65613;SDS011;52283;49.292;10.572;2023-09-19T06:45:28;1.48;;;1.25;;
65613;SDS011;52283;49.292;10.572;2023-09-19T06:47:56;3.47;;;1.60;;
65613;SDS011;52283;49.292;10.572;2023-09-19T06:50:25;3.92;;;1.85;;
65613;SDS011;52283;49.292;10.572;2023-09-19T06:52:54;4.38;;;1.10;;
65613;SDS011;52283;49.292;10.572;2023-09-19T06:55:22;3.30;;;1.20;;
65613;SDS011;52283;49.292;10.572;2023-09-19T06:57:50;1.33;;;1.00;;
65613;SDS011;52283;49.292;10.572;2023-09-19T07:00:19;4.78;;;0.98;;
65613;SDS011;52283;49.292;10.572;2023-09-19T07:02:54;3.80;;;0.90;;
65613;SDS011;52283;49.292;10.572;2023-09-19T07:05:21;2.95;;;1.00;;
65613;SDS011;52283;49.292;10.572;2023-09-19T07:07:47;3.95;;;1.13;;
65613;SDS011;52283;49.292;10.572;2023-09-19T07:10:15;1.95;;;1.30;;
65613;SDS011;52283;49.292;10.572;2023-09-19T07:12:43;1.42;;;1.23;;
65613;SDS011;52283;49.292;10.572;2023-09-19T07:15:09;3.05;;;1.08;;
65613;SDS011;52283;49.292;10.572;2023-09-19T07:17:36;2.00;;;1.13;;
65613;SDS011;52283;49.292;10.572;2023-09-19T07:20:02;3.05;;;1.20;;
65613;SDS011;52283;49.292;10.572;2023-09-19T07:22:32;4.47;;;1.50;;
65613;SDS011;52283;49.292;10.572;2023-09-19T07:24:59;1.95;;;0.90;;
65613;SDS011;52283;49.292;10.572;2023-09-19T07:27:27;3.35;;;1.00;;
65613;SDS011;52283;49.292;10.572;2023-09-19T07:29:53;4.55;;;1.45;;
65613;SDS011;52283;49.292;10.572;2023-09-19T07:32:20;1.50;;;1.02;;
65613;SDS011;52283;49.292;10.572;2023-09-19T07:34:46;1.20;;;0.73;;
65613;SDS011;52283;49.292;10.572;2023-09-19T07:37:13;4.20;;;1.00;;
65613;SDS011;52283;49.292;10.572;2023-09-19T07:39:41;4.05;;;1.30;;
65613;SDS011;52283;49.292;10.572;2023-09-19T07:42:08;3.95;;;1.35;;
65613;SDS011;52283;49.292;10.572;2023-09-19T07:44:37;2.47;;;1.23;;
65613;SDS011;52283;49.292;10.572;2023-09-19T07:47:04;5.57;;;1.08;;
65613;SDS011;52283;49.292;10.572;2023-09-19T07:49:30;1.85;;;1.00;;
65613;SDS011;52283;49.292;10.572;2023-09-19T07:51:57;1.70;;;1.10;;
65613;SDS011;52283;49.292;10.572;2023-09-19T07:54:24;1.77;;;1.42;;
65613;SDS011;52283;49.292;10.572;2023-09-19T07:56:50;1.30;;;1.15;;
65613;SDS011;52283;49.292;10.572;2023-09-19T07:59:17;2.92;;;1.02;;
65613;SDS011;52283;49.292;10.572;2023-09-19T08:01:44;3.55;;;1.42;;
65613;SDS011;52283;49.292;10.572;2023-09-19T08:04:12;3.05;;;1.25;;
65613;SDS011;52283;49.292;10.572;2023-09-19T08:06:39;1.13;;;0.90;;
65613;SDS011;52283;49.292;10.572;2023-09-19T08:09:05;3.33;;;1.45;;
65613;SDS011;52283;49.292;10.572;2023-09-19T08:11:35;2.13;;;1.45;;
65613;SDS011;52283;49.292;10.572;2023-09-19T08:14:02;1.60;;;0.90;;
65613;SDS011;52283;49.292;10.572;2023-09-19T08:16:30;3.13;;;0.93;;
65613;SDS011;52283;49.292;10.572;2023-09-19T08:18:58;2.33;;;1.10;;
65613;SDS011;52283;49.292;10.572;2023-09-19T08:21:25;2.35;;;0.80;;
65613;SDS011;52283;49.292;10.572;2023-09-19T08:23:54;0.85;;;0.60;;
65613;SDS011;52283;49.292;10.572;2023-09-19T08:26:22;2.45;;;0.70;;
65613;SDS011;52283;49.292;10.572;2023-09-19T08:28:49;3.40;;;0.75;;
65613;SDS011;52283;49.292;10.572;2023-09-19T08:31:16;9.27;;;1.52;;
65613;SDS011;52283;49.292;10.572;2023-09-19T08:33:43;4.95;;;1.17;;
65613;SDS011;52283;49.292;10.572;2023-09-19T08:36:11;1.33;;;1.00;;
65613;SDS011;52283;49.292;10.572;2023-09-19T08:38:39;1.17;;;0.70;;
65613;SDS011;52283;49.292;10.572;2023-09-19T08:41:06;2.40;;;0.80;;
65613;SDS011;52283;49.292;10.572;2023-09-19T08:43:33;1.92;;;0.80;;
65613;SDS011;52283;49.292;10.572;2023-09-19T08:46:03;1.88;;;0.68;;
65613;SDS011;52283;49.292;10.572;2023-09-19T08:48:36;3.92;;;0.80;;
65613;SDS011;52283;49.292;10.572;2023-09-19T08:51:10;2.25;;;0.95;;
65613;SDS011;52283;49.292;10.572;2023-09-19T08:53:46;2.35;;;1.00;;
65613;SDS011;52283;49.292;10.572;2023-09-19T08:56:18;2.47;;;0.82;;
65613;SDS011;52283;49.292;10.572;2023-09-19T08:58:45;1.73;;;1.05;;
65613;SDS011;52283;49.292;10.572;2023-09-19T09:01:17;3.67;;;0.90;;
65613;SDS011;52283;49.292;10.572;2023-09-19T09:03:49;1.02;;;0.90;;
65613;SDS011;52283;49.292;10.572;2023-09-19T09:06:18;2.92;;;0.80;;
65613;SDS011;52283;49.292;10.572;2023-09-19T09:08:45;1.23;;;1.13;;
65613;SDS011;52283;49.292;10.572;2023-09-19T09:11:12;5.15;;;0.82;;
65613;SDS011;52283;49.292;10.572;2023-09-19T09:13:41;1.23;;;0.77;;
65613;SDS011;52283;49.292;10.572;2023-09-19T09:16:09;1.58;;;0.95;;
65613;SDS011;52283;49.292;10.572;2023-09-19T09:18:37;1.63;;;0.95;;
65613;SDS011;52283;49.292;10.572;2023-09-19T09:21:04;1.52;;;1.38;;
65613;SDS011;52283;49.292;10.572;2023-09-19T09:23:32;2.70;;;1.02;;
65613;SDS011;52283;49.292;10.572;2023-09-19T09:25:59;3.00;;;1.10;;
65613;SDS011;52283;49.292;10.572;2023-09-19T09:28:28;5.40;;;1.40;;
65613;SDS011;52283;49.292;10.572;2023-09-19T09:30:56;3.15;;;1.08;;
65613;SDS011;52283;49.292;10.572;2023-09-19T09:33:24;1.80;;;1.00;;
65613;SDS011;52283;49.292;10.572;2023-09-19T09:35:51;2.03;;;1.30;;
65613;SDS011;52283;49.292;10.572;2023-09-19T09:38:21;2.30;;;1.30;;
65613;SDS011;52283;49.292;10.572;2023-09-19T09:40:52;3.47;;;1.30;;
65613;SDS011;52283;49.292;10.572;2023-09-19T09:43:25;4.95;;;1.38;;
65613;SDS011;52283;49.292;10.572;2023-09-19T09:46:06;1.85;;;1.08;;
65613;SDS011;52283;49.292;10.572;2023-09-19T09:48:57;1.80;;;1.00;;
65613;SDS011;52283;49.292;10.572;2023-09-19T09:51:46;1.20;;;0.90;;
65613;SDS011;52283;49.292;10.572;2023-09-19T09:54:24;0.77;;;0.77;;
65613;SDS011;52283;49.292;10.572;2023-09-19T09:56:54;1.27;;;0.73;;
65613;SDS011;52283;49.292;10.572;2023-09-19T10:02:12;1.90;;;0.65;;
65613;SDS011;52283;49.292;10.572;2023-09-19T10:04:40;2.67;;;0.70;;
65613;SDS011;52283;49.292;10.572;2023-09-19T10:07:23;1.10;;;0.85;;
65613;SDS011;52283;49.292;10.572;2023-09-19T10:09:57;3.33;;;0.50;;
65613;SDS011;52283;49.292;10.572;2023-09-19T10:12:31;2.00;;;0.40;;
65613;SDS011;52283;49.292;10.572;2023-09-19T10:14:58;5.28;;;0.40;;
65613;SDS011;52283;49.292;10.572;2023-09-19T10:17:29;0.75;;;0.75;;
65613;SDS011;52283;49.292;10.572;2023-09-19T10:22:34;0.43;;;0.40;;
65613;SDS011;52283;49.292;10.572;2023-09-19T10:25:02;3.30;;;0.50;;
65613;SDS011;52283;49.292;10.572;2023-09-19T10:27:33;0.95;;;0.47;;
65613;SDS011;52283;49.292;10.572;2023-09-19T10:30:04;1.33;;;0.57;;
65613;SDS011;52283;49.292;10.572;2023-09-19T10:32:33;4.45;;;0.50;;
65613;SDS011;52283;49.292;10.572;2023-09-19T10:35:01;4.38;;;1.08;;
65613;SDS011;52283;49.292;10.572;2023-09-19T10:37:32;1.95;;;0.40;;
65613;SDS011;52283;49.292;10.572;2023-09-19T10:40:00;1.67;;;0.50;;
65613;SDS011;52283;49.292;10.572;2023-09-19T10:42:26;1.92;;;0.80;;
65613;SDS011;52283;49.292;10.572;2023-09-19T10:44:56;1.40;;;0.60;;
65613;SDS011;52283;49.292;10.572;2023-09-19T10:47:26;2.22;;;0.90;;
65613;SDS011;52283;49.292;10.572;2023-09-19T10:49:52;2.13;;;0.80;;
65613;SDS011;52283;49.292;10.572;2023-09-19T10:52:20;2.63;;;0.80;;
65613;SDS011;52283;49.292;10.572;2023-09-19T10:54:50;2.22;;;0.68;;
65613;SDS011;52283;49.292;10.572;2023-09-19T10:57:22;9.13;;;0.68;;
65613;SDS011;52283;49.292;10.572;2023-09-19T11:00:04;2.60;;;0.60;;
65613;SDS011;52283;49.292;10.572;2023-09-19T11:06:01;1.40;;;0.55;;
65613;SDS011;52283;49.292;10.572;2023-09-19T11:08:30;5.53;;;2.08;;
65613;SDS011;52283;49.292;10.572;2023-09-19T11:10:59;1.17;;;0.70;;
65613;SDS011;52283;49.292;10.572;2023-09-19T11:13:28;2.05;;;0.70;;
65613;SDS011;52283;49.292;10.572;2023-09-19T11:16:04;2.05;;;0.45;;
65613;SDS011;52283;49.292;10.572;2023-09-19T11:21:38;1.80;;;0.32;;
65613;SDS011;52283;49.292;10.572;2023-09-19T11:24:29;1.75;;;0.57;;
65613;SDS011;52283;49.292;10.572;2023-09-19T11:27:11;3.33;;;0.88;;
65613;SDS011;52283;49.292;10.572;2023-09-19T11:29:39;0.85;;;0.65;;
65613;SDS011;52283;49.292;10.572;2023-09-19T11:32:08;3.10;;;0.60;;
65613;SDS011;52283;49.292;10.572;2023-09-19T11:40:36;1.77;;;0.50;;
65613;SDS011;52283;49.292;10.572;2023-09-19T11:46:04;1.70;;;0.55;;
65613;SDS011;52283;49.292;10.572;2023-09-19T11:48:35;2.63;;;0.50;;
65613;SDS011;52283;49.292;10.572;2023-09-19T11:51:10;1.05;;;0.50;;
65613;SDS011;52283;49.292;10.572;2023-09-19T11:53:41;2.33;;;0.60;;
65613;SDS011;52283;49.292;10.572;2023-09-19T11:56:09;1.52;;;0.80;;
65613;SDS011;52283;49.292;10.572;2023-09-19T11:58:37;1.13;;;0.60;;
65613;SDS011;52283;49.292;10.572;2023-09-19T12:01:04;2.75;;;0.55;;
65613;SDS011;52283;49.292;10.572;2023-09-19T12:03:39;1.23;;;0.50;;
65613;SDS011;52283;49.292;10.572;2023-09-19T12:06:11;1.97;;;0.70;;
65613;SDS011;52283;49.292;10.572;2023-09-19T12:08:41;3.53;;;0.52;;
65613;SDS011;52283;49.292;10.572;2023-09-19T12:11:11;2.92;;;0.73;;
65613;SDS011;52283;49.292;10.572;2023-09-19T12:13:41;3.33;;;0.60;;
65613;SDS011;52283;49.292;10.572;2023-09-19T12:16:11;1.23;;;0.60;;
65613;SDS011;52283;49.292;10.572;2023-09-19T12:21:20;6.07;;;0.80;;
65613;SDS011;52283;49.292;10.572;2023-09-19T12:24:05;0.70;;;0.68;;
65613;SDS011;52283;49.292;10.572;2023-09-19T12:26:39;3.25;;;0.70;;
65613;SDS011;52283;49.292;10.572;2023-09-19T12:29:15;1.80;;;0.60;;
65613;SDS011;52283;49.292;10.572;2023-09-19T12:31:50;3.38;;;0.80;;
65613;SDS011;52283;49.292;10.572;2023-09-19T12:34:21;2.67;;;0.77;;
65613;SDS011;52283;49.292;10.572;2023-09-19T12:37:03;3.08;;;0.90;;
65613;SDS011;52283;49.292;10.572;2023-09-19T12:39:30;2.92;;;0.65;;
65613;SDS011;52283;49.292;10.572;2023-09-19T12:41:56;2.28;;;0.93;;
65613;SDS011;52283;49.292;10.572;2023-09-19T12:44:23;2.83;;;0.60;;
65613;SDS011;52283;49.292;10.572;2023-09-19T12:46:50;2.63;;;0.60;;
65613;SDS011;52283;49.292;10.572;2023-09-19T12:49:19;1.42;;;0.60;;
65613;SDS011;52283;49.292;10.572;2023-09-19T12:51:48;1.42;;;0.50;;
65613;SDS011;52283;49.292;10.572;2023-09-19T12:54:15;1.08;;;0.73;;
65613;SDS011;52283;49.292;10.572;2023-09-19T12:56:42;0.98;;;0.60;;
65613;SDS011;52283;49.292;10.572;2023-09-19T12:59:11;1.83;;;0.60;;
65613;SDS011;52283;49.292;10.572;2023-09-19T13:01:39;1.98;;;0.50;;
65613;SDS011;52283;49.292;10.572;2023-09-19T13:04:14;0.93;;;0.57;;
65613;SDS011;52283;49.292;10.572;2023-09-19T13:06:45;1.17;;;0.40;;
65613;SDS011;52283;49.292;10.572;2023-09-19T13:09:14;4.57;;;0.57;;
65613;SDS011;52283;49.292;10.572;2023-09-19T13:11:41;1.02;;;0.60;;
65613;SDS011;52283;49.292;10.572;2023-09-19T13:14:15;1.45;;;0.57;;
65613;SDS011;52283;49.292;10.572;2023-09-19T13:16:53;2.45;;;0.80;;
65613;SDS011;52283;49.292;10.572;2023-09-19T13:19:37;0.65;;;0.50;;
65613;SDS011;52283;49.292;10.572;2023-09-19T13:25:04;3.17;;;0.52;;
65613;SDS011;52283;49.292;10.572;2023-09-19T13:27:33;2.15;;;0.90;;
65613;SDS011;52283;49.292;10.572;2023-09-19T13:30:00;3.00;;;0.68;;
65613;SDS011;52283;49.292;10.572;2023-09-19T13:32:26;1.00;;;0.60;;
65613;SDS011;52283;49.292;10.572;2023-09-19T13:34:53;1.65;;;0.73;;
65613;SDS011;52283;49.292;10.572;2023-09-19T13:37:20;1.13;;;0.70;;
65613;SDS011;52283;49.292;10.572;2023-09-19T13:39:48;2.05;;;0.60;;
65613;SDS011;52283;49.292;10.572;2023-09-19T13:42:15;2.60;;;0.50;;
65613;SDS011;52283;49.292;10.572;2023-09-19T13:44:43;3.97;;;0.63;;
65613;SDS011;52283;49.292;10.572;2023-09-19T13:47:10;0.80;;;0.50;;
65613;SDS011;52283;49.292;10.572;2023-09-19T13:49:38;2.25;;;0.30;;
65613;SDS011;52283;49.292;10.572;2023-09-19T13:52:05;2.03;;;0.50;;
65613;SDS011;52283;49.292;10.572;2023-09-19T13:54:32;2.20;;;1.10;;
65613;SDS011;52283;49.292;10.572;2023-09-19T13:57:00;2.08;;;0.50;;
65613;SDS011;52283;49.292;10.572;2023-09-19T13:59:27;1.58;;;0.52;;
65613;SDS011;52283;49.292;10.572;2023-09-19T14:01:53;0.75;;;0.63;;
65613;SDS011;52283;49.292;10.572;2023-09-19T14:04:20;2.65;;;0.40;;
65613;SDS011;52283;49.292;10.572;2023-09-19T14:06:47;0.60;;;0.55;;
65613;SDS011;52283;49.292;10.572;2023-09-19T14:09:13;3.50;;;0.70;;
65613;SDS011;52283;49.292;10.572;2023-09-19T14:11:44;1.92;;;0.50;;
65613;SDS011;52283;49.292;10.572;2023-09-19T14:14:13;2.50;;;0.50;;
65613;SDS011;52283;49.292;10.572;2023-09-19T14:16:40;0.77;;;0.50;;
65613;SDS011;52283;49.292;10.572;2023-09-19T14:19:06;2.05;;;0.60;;
65613;SDS011;52283;49.292;10.572;2023-09-19T14:21:34;1.60;;;0.60;;
65613;SDS011;52283;49.292;10.572;2023-09-19T14:24:01;1.02;;;0.40;;
65613;SDS011;52283;49.292;10.572;2023-09-19T14:26:28;0.70;;;0.50;;
65613;SDS011;52283;49.292;10.572;2023-09-19T14:28:55;0.90;;;0.60;;
65613;SDS011;52283;49.292;10.572;2023-09-19T14:31:23;0.75;;;0.75;;
65613;SDS011;52283;49.292;10.572;2023-09-19T14:33:53;1.27;;;0.43;;
65613;SDS011;52283;49.292;10.572;2023-09-19T14:36:20;1.08;;;0.50;;
65613;SDS011;52283;49.292;10.572;2023-09-19T14:38:46;2.50;;;0.50;;
65613;SDS011;52283;49.292;10.572;2023-09-19T14:41:13;1.40;;;0.43;;
65613;SDS011;52283;49.292;10.572;2023-09-19T14:43:40;2.60;;;0.50;;
65613;SDS011;52283;49.292;10.572;2023-09-19T14:46:06;3.70;;;0.93;;
65613;SDS011;52283;49.292;10.572;2023-09-19T14:58:54;2.53;;;0.77;;
65613;SDS011;52283;49.292;10.572;2023-09-19T15:01:21;2.80;;;0.40;;
65613;SDS011;52283;49.292;10.572;2023-09-19T15:03:48;2.10;;;0.52;;
65613;SDS011;52283;49.292;10.572;2023-09-19T15:06:14;1.23;;;0.50;;
65613;SDS011;52283;49.292;10.572;2023-09-19T15:08:42;1.67;;;0.50;;
65613;SDS011;52283;49.292;10.572;2023-09-19T15:11:12;1.02;;;0.50;;
65613;SDS011;52283;49.292;10.572;2023-09-19T15:13:41;7.15;;;0.57;;
65613;SDS011;52283;49.292;10.572;2023-09-19T15:16:10;1.77;;;0.38;;
65613;SDS011;52283;49.292;10.572;2023-09-19T15:18:38;0.95;;;0.50;;
65613;SDS011;52283;49.292;10.572;2023-09-19T15:21:06;2.08;;;0.98;;
65613;SDS011;52283;49.292;10.572;2023-09-19T15:23:34;1.23;;;0.40;;
65613;SDS011;52283;49.292;10.572;2023-09-19T15:26:01;0.65;;;0.50;;